Gracefield, Canada
Current Conditions -  °F | °C
As of 9:00 PM on Saturday 24 Jan 2015 (Local Time) from CYND Reporting Station
Light Snow Light Snow  
Wind Chill: 18°   Ceiling: 1600
Heat Index: 27°   Visibility: 10mi
Dew Point: 27°   Wind: 8mph
Humidity: 100%   Direction: 250°WSW
Pressure: 29.34"   Gusts: NA
Location:  46.09°N, 76.05°W
Report Text: CYND 250200Z 25007KT 10SM -SN BKN016 OVC040 M03/M03 A2934 RMK SC5SC3 LAST OBS/NEXT 251200 UTC SLP937
Loading
Personal Weather Stations






























Interactive Weather Map New forecast layout! Learn more

10-Day Weather Forecast

Advertisements
Track Severe Weather on mobile